createdAt,value
2019-05-23T00:01:22.769Z,3.10
2019-05-23T00:02:43.986Z,2.72
2019-05-23T00:03:54.449Z,2.25
2019-05-23T00:05:12.938Z,3.22
2019-05-23T00:06:20.188Z,2.80
2019-05-23T00:07:25.432Z,2.77
2019-05-23T00:08:30.768Z,2.83
2019-05-23T00:09:33.410Z,2.45
2019-05-23T00:10:42.224Z,3.08
2019-05-23T00:11:46.499Z,2.62
2019-05-23T00:12:59.209Z,2.50
2019-05-23T00:14:06.727Z,3.30
2019-05-23T00:15:20.294Z,2.40
2019-05-23T00:16:23.162Z,2.67
2019-05-23T00:17:25.572Z,2.45
2019-05-23T00:18:28.681Z,2.60
2019-05-23T00:19:32.057Z,2.67
2019-05-23T00:20:35.062Z,2.72
2019-05-23T00:21:38.527Z,3.17
2019-05-23T00:22:43.632Z,3.37
2019-05-23T00:23:46.189Z,3.20
2019-05-23T00:24:49.761Z,2.83
2019-05-23T00:25:53.317Z,2.92
2019-05-23T00:26:56.919Z,2.65
2019-05-23T00:27:59.697Z,3.60
2019-05-23T00:29:09.924Z,3.50
2019-05-23T00:30:08.752Z,2.83
2019-05-23T00:31:25.466Z,3.37
2019-05-23T00:32:45.343Z,3.55
2019-05-23T00:33:48.265Z,2.45
2019-05-23T00:34:52.956Z,3.27
2019-05-23T00:35:56.153Z,2.65
2019-05-23T00:36:59.316Z,3.22
2019-05-23T00:38:03.680Z,3.02
2019-05-23T00:39:08.609Z,2.65
2019-05-23T00:40:12.232Z,3.45
2019-05-23T00:41:16.937Z,3.10
2019-05-23T00:42:21.268Z,2.98
2019-05-23T00:43:24.965Z,2.70
2019-05-23T00:44:30.032Z,3.02
2019-05-23T00:45:34.568Z,2.52
2019-05-23T00:46:37.486Z,3.08
2019-05-23T00:47:41.804Z,3.05
2019-05-23T00:48:45.295Z,3.00
2019-05-23T00:49:48.996Z,4.03
2019-05-23T00:50:52.116Z,3.15
2019-05-23T00:51:55.028Z,3.00
2019-05-23T00:52:58.766Z,3.30
2019-05-23T00:54:02.996Z,3.12
2019-05-23T00:55:07.684Z,2.90
2019-05-23T00:56:10.352Z,3.15
2019-05-23T00:57:13.657Z,3.67
2019-05-23T00:58:19.312Z,3.17
2019-05-23T00:59:27.199Z,3.27
2019-05-23T01:00:26.825Z,3.10
2019-05-23T01:01:31.273Z,3.22
2019-05-23T01:02:33.904Z,3.55
2019-05-23T01:03:37.623Z,3.55
2019-05-23T01:04:42.153Z,3.87
2019-05-23T01:05:44.792Z,3.47
2019-05-23T01:06:47.891Z,3.50
2019-05-23T01:07:52.020Z,3.98
2019-05-23T01:08:57.759Z,3.65
2019-05-23T01:10:01.086Z,3.75
2019-05-23T01:11:04.696Z,2.92
2019-05-23T01:12:07.966Z,3.37
2019-05-23T01:13:10.657Z,2.83
2019-05-23T01:14:13.407Z,3.17
2019-05-23T01:15:18.111Z,3.20
2019-05-23T01:16:21.456Z,3.45
2019-05-23T01:17:26.443Z,3.37
2019-05-23T01:18:28.927Z,3.02
2019-05-23T01:19:32.186Z,3.25
2019-05-23T01:20:49.572Z,3.12
2019-05-23T01:22:03.452Z,3.72
2019-05-23T01:23:08.765Z,3.60
2019-05-23T01:24:21.755Z,3.67
2019-05-23T01:25:25.369Z,3.35
2019-05-23T01:26:28.659Z,2.80
2019-05-23T01:27:31.578Z,3.27
2019-05-23T01:28:34.240Z,2.95
2019-05-23T01:29:39.034Z,3.27
2019-05-23T01:30:44.487Z,3.17
2019-05-23T01:31:49.141Z,3.02
2019-05-23T01:32:55.098Z,3.10
2019-05-23T01:33:57.685Z,2.92
2019-05-23T01:35:00.995Z,3.30
2019-05-23T01:36:08.525Z,2.70
2019-05-23T01:37:11.335Z,3.27
2019-05-23T01:38:15.576Z,3.05
2019-05-23T01:39:18.449Z,3.02
2019-05-23T01:40:21.102Z,3.65
2019-05-23T01:41:24.427Z,2.83
2019-05-23T01:42:27.650Z,3.72
2019-05-23T01:43:31.545Z,3.33
2019-05-23T01:44:35.276Z,3.12
2019-05-23T01:45:39.989Z,3.77
2019-05-23T01:46:42.683Z,3.72
2019-05-23T01:47:47.192Z,4.03
2019-05-23T01:48:49.674Z,3.50
2019-05-23T01:49:52.492Z,3.50
2019-05-23T01:50:54.927Z,3.95
2019-05-23T01:51:57.394Z,3.10
2019-05-23T01:52:59.791Z,3.77
2019-05-23T01:54:02.864Z,2.77
2019-05-23T01:55:07.527Z,3.33
2019-05-23T01:56:10.954Z,3.65
2019-05-23T01:57:13.850Z,4.28
2019-05-23T01:58:16.395Z,2.85
2019-05-23T01:59:19.428Z,3.25
2019-05-23T02:00:26.232Z,4.05
2019-05-23T02:01:29.230Z,3.65
2019-05-23T02:02:32.085Z,3.60
2019-05-23T02:03:36.089Z,2.90
2019-05-23T02:04:39.285Z,3.75
2019-05-23T02:05:42.157Z,3.30
2019-05-23T02:06:45.089Z,4.33
2019-05-23T02:07:48.741Z,3.80
2019-05-23T02:08:52.648Z,3.58
2019-05-23T02:09:55.498Z,3.85
2019-05-23T02:10:58.231Z,3.55
2019-05-23T02:12:02.663Z,3.98
2019-05-23T02:13:05.475Z,3.02
2019-05-23T02:14:08.069Z,3.08
2019-05-23T02:15:12.274Z,2.95
2019-05-23T02:16:14.654Z,3.77
2019-05-23T02:17:17.656Z,3.90
2019-05-23T02:18:21.212Z,3.67
2019-05-23T02:19:25.420Z,3.35
2019-05-23T02:20:28.514Z,3.17
2019-05-23T02:21:30.936Z,3.08
2019-05-23T02:22:33.857Z,3.87
2019-05-23T02:23:36.276Z,3.45
2019-05-23T02:24:39.032Z,2.90
2019-05-23T02:25:41.874Z,3.45
2019-05-23T02:26:46.225Z,3.72
2019-05-23T02:27:50.355Z,3.52
2019-05-23T02:28:53.601Z,3.05
2019-05-23T02:29:56.033Z,3.42
2019-05-23T02:31:00.542Z,4.33
2019-05-23T02:32:05.414Z,2.90
2019-05-23T02:33:08.584Z,3.25
2019-05-23T02:34:11.518Z,3.08
2019-05-23T02:35:14.583Z,3.12
2019-05-23T02:36:17.172Z,4.22
2019-05-23T02:37:34.214Z,3.65
2019-05-23T02:38:50.529Z,2.95
2019-05-23T02:40:03.114Z,3.70
2019-05-23T02:41:28.029Z,3.00
2019-05-23T02:42:47.519Z,3.67
2019-05-23T02:43:53.571Z,2.80
2019-05-23T02:44:57.224Z,3.90
2019-05-23T02:46:02.892Z,3.65
2019-05-23T02:47:24.355Z,3.67
2019-05-23T02:48:33.139Z,3.60
2019-05-23T02:49:36.518Z,3.30
2019-05-23T02:50:50.075Z,3.10
2019-05-23T02:51:55.058Z,3.40
2019-05-23T02:52:59.286Z,2.87
2019-05-23T02:54:04.189Z,3.20
2019-05-23T02:55:13.011Z,3.02
2019-05-23T02:56:17.902Z,3.25
2019-05-23T02:57:23.538Z,3.15
2019-05-23T02:58:51.357Z,3.50
2019-05-23T02:59:58.752Z,3.40
2019-05-23T03:01:45.553Z,3.12
2019-05-23T03:02:54.061Z,3.10
2019-05-23T03:04:00.994Z,3.62
2019-05-23T03:05:06.315Z,3.17
2019-05-23T03:06:16.477Z,3.42
2019-05-23T03:07:21.345Z,3.92
2019-05-23T03:08:24.239Z,3.15
2019-05-23T03:09:32.460Z,2.58
2019-05-23T03:11:01.535Z,3.37
2019-05-23T03:12:06.339Z,2.70
2019-05-23T03:13:10.528Z,4.70
2019-05-23T03:14:14.874Z,3.30
2019-05-23T03:15:18.732Z,4.10
2019-05-23T03:16:24.759Z,3.50
2019-05-23T03:17:30.283Z,3.30
2019-05-23T03:18:39.204Z,3.92
2019-05-23T03:19:57.244Z,3.80
2019-05-23T03:21:01.517Z,3.87
2019-05-23T03:22:31.113Z,3.27
2019-05-23T03:23:34.930Z,3.77
2019-05-23T03:24:38.442Z,3.22
2019-05-23T03:26:20.267Z,3.25
2019-05-23T03:27:24.163Z,3.55
2019-05-23T03:28:29.927Z,3.47
2019-05-23T03:29:33.803Z,3.25
2019-05-23T03:30:38.613Z,3.62
2019-05-23T03:31:46.726Z,4.25
2019-05-23T03:32:52.851Z,3.17
2019-05-23T03:33:55.453Z,4.22
2019-05-23T03:35:04.569Z,3.52
2019-05-23T03:36:08.114Z,3.65
2019-05-23T03:37:10.828Z,4.22
2019-05-23T03:38:14.350Z,3.47
2019-05-23T03:39:17.625Z,3.80
2019-05-23T03:40:22.336Z,3.85
2019-05-23T03:41:25.437Z,3.47
2019-05-23T03:42:28.464Z,3.83
2019-05-23T03:43:31.085Z,4.12
2019-05-23T03:44:33.741Z,3.52
2019-05-23T03:45:39.818Z,3.20
2019-05-23T03:46:46.176Z,3.92
2019-05-23T03:47:49.014Z,3.83
2019-05-23T03:48:52.628Z,3.80
2019-05-23T03:49:55.387Z,3.37
2019-05-23T03:51:00.276Z,4.08
2019-05-23T03:52:04.244Z,3.98
2019-05-23T03:53:09.669Z,3.60
2019-05-23T03:54:12.815Z,3.67
2019-05-23T03:55:15.538Z,3.98
2019-05-23T03:56:19.178Z,3.20
2019-05-23T03:57:25.623Z,4.55
2019-05-23T03:58:29.098Z,3.98
2019-05-23T03:59:32.712Z,3.62
2019-05-23T04:00:38.813Z,3.45
2019-05-23T04:01:48.626Z,3.37
2019-05-23T04:02:50.091Z,3.83
2019-05-23T04:03:54.733Z,4.30
2019-05-23T04:04:58.872Z,4.05
2019-05-23T04:06:01.925Z,3.40
2019-05-23T04:07:04.541Z,3.90
2019-05-23T04:08:07.110Z,3.95
2019-05-23T04:09:11.123Z,4.28
2019-05-23T04:10:13.904Z,3.42
2019-05-23T04:11:17.910Z,3.42
2019-05-23T04:12:20.936Z,3.20
2019-05-23T04:13:24.412Z,3.80
2019-05-23T04:14:27.765Z,3.87
2019-05-23T04:15:32.072Z,4.17
2019-05-23T04:16:34.498Z,2.77
2019-05-23T04:17:37.897Z,3.75
2019-05-23T04:18:40.325Z,3.60
2019-05-23T04:19:42.793Z,4.25
2019-05-23T04:20:46.020Z,4.22
2019-05-23T04:21:48.455Z,3.98
2019-05-23T04:22:51.017Z,3.87
2019-05-23T04:23:53.464Z,4.10
2019-05-23T04:25:01.154Z,3.12
2019-05-23T04:26:01.092Z,4.28
2019-05-23T04:27:03.542Z,3.42
2019-05-23T04:28:06.177Z,3.87
2019-05-23T04:29:09.817Z,3.62
2019-05-23T04:30:12.337Z,4.58
2019-05-23T04:31:14.855Z,3.35
2019-05-23T04:32:17.779Z,4.15
2019-05-23T04:33:20.956Z,3.62
2019-05-23T04:34:23.783Z,4.05
2019-05-23T04:35:27.417Z,4.22
2019-05-23T04:36:31.966Z,3.58
2019-05-23T04:37:34.508Z,4.40
2019-05-23T04:38:50.172Z,3.65
2019-05-23T04:39:53.209Z,2.87
2019-05-23T04:40:56.317Z,3.80
2019-05-23T04:41:59.575Z,4.03
2019-05-23T04:43:04.443Z,4.25
2019-05-23T04:44:08.740Z,3.20
2019-05-23T04:45:11.530Z,4.17
2019-05-23T04:46:14.474Z,3.65
2019-05-23T04:47:18.295Z,4.37
2019-05-23T04:48:20.695Z,3.20
2019-05-23T04:49:23.450Z,4.25
2019-05-23T04:50:25.907Z,3.65
2019-05-23T04:51:29.053Z,3.77
2019-05-23T04:52:32.074Z,4.78
2019-05-23T04:53:35.648Z,4.03
2019-05-23T04:54:40.114Z,3.37
2019-05-23T04:55:42.954Z,3.90
2019-05-23T04:56:45.415Z,4.12
2019-05-23T04:57:48.073Z,4.10
2019-05-23T04:58:51.806Z,3.98
2019-05-23T04:59:54.902Z,4.35
2019-05-23T05:00:57.619Z,4.15
2019-05-23T05:02:01.066Z,4.33
2019-05-23T05:03:05.279Z,3.77
2019-05-23T05:04:08.232Z,4.05
2019-05-23T05:05:11.655Z,4.33
2019-05-23T05:06:14.918Z,4.28
2019-05-23T05:07:17.685Z,4.72
2019-05-23T05:08:20.395Z,3.80
2019-05-23T05:09:28.795Z,4.20
2019-05-23T05:10:32.209Z,3.90
2019-05-23T05:11:34.836Z,4.87
2019-05-23T05:12:37.515Z,3.85
2019-05-23T05:13:41.492Z,3.90
2019-05-23T05:14:44.280Z,4.47
2019-05-23T05:15:47.228Z,4.03
2019-05-23T05:16:50.335Z,4.10
2019-05-23T05:17:52.796Z,4.05
2019-05-23T05:18:57.427Z,4.12
2019-05-23T05:20:00.187Z,3.83
2019-05-23T05:21:02.912Z,4.40
2019-05-23T05:22:05.463Z,4.15
2019-05-23T05:23:07.899Z,3.70
2019-05-23T05:24:10.310Z,3.77
2019-05-23T05:25:13.439Z,3.58
2019-05-23T05:26:21.749Z,4.92
2019-05-23T05:27:25.195Z,3.87
2019-05-23T05:28:29.448Z,4.45
2019-05-23T05:29:31.982Z,4.45
2019-05-23T05:30:35.366Z,4.22
2019-05-23T05:31:37.880Z,4.58
2019-05-23T05:32:45.323Z,4.78
2019-05-23T05:33:46.643Z,4.83
2019-05-23T05:34:49.173Z,4.17
2019-05-23T05:35:51.716Z,4.30
2019-05-23T05:36:54.464Z,5.08
2019-05-23T05:37:57.419Z,5.08
2019-05-23T05:38:59.963Z,5.12
2019-05-23T05:40:03.893Z,4.75
2019-05-23T05:41:07.250Z,4.40
2019-05-23T05:42:11.098Z,3.95
2019-05-23T05:43:14.443Z,4.45
2019-05-23T05:44:18.418Z,4.58
2019-05-23T05:45:21.430Z,4.20
2019-05-23T05:46:24.266Z,3.65
2019-05-23T05:47:27.373Z,3.72
2019-05-23T05:48:30.533Z,4.25
2019-05-23T05:49:34.407Z,4.12
2019-05-23T05:50:40.142Z,4.33
2019-05-23T05:51:44.235Z,4.25
2019-05-23T05:52:48.095Z,3.77
2019-05-23T05:53:53.529Z,3.85
2019-05-23T05:55:01.164Z,4.05
2019-05-23T05:56:09.594Z,4.70
2019-05-23T05:57:12.937Z,4.60
2019-05-23T05:58:15.753Z,3.62
2019-05-23T05:59:19.259Z,3.77
2019-05-23T06:00:36.641Z,4.35
2019-05-23T06:01:39.817Z,4.75
2019-05-23T06:03:00.803Z,4.08
2019-05-23T06:03:49.279Z,4.30
2019-05-23T06:04:52.309Z,4.45
2019-05-23T06:06:23.500Z,3.47
2019-05-23T06:07:36.577Z,4.50
2019-05-23T06:08:40.162Z,3.92
2019-05-23T06:09:42.988Z,4.22
2019-05-23T06:10:45.451Z,4.60
2019-05-23T06:11:47.865Z,3.92
2019-05-23T06:12:50.583Z,4.00
2019-05-23T06:13:53.619Z,4.78
2019-05-23T06:14:56.212Z,3.70
2019-05-23T06:15:58.684Z,4.15
2019-05-23T06:17:03.879Z,4.42
2019-05-23T06:18:06.401Z,4.33
2019-05-23T06:19:09.071Z,5.10
2019-05-23T06:20:12.167Z,4.47
2019-05-23T06:21:18.341Z,4.90
2019-05-23T06:22:21.701Z,5.40
2019-05-23T06:23:24.229Z,4.95
2019-05-23T06:24:41.683Z,4.83
2019-05-23T06:25:31.769Z,4.65
2019-05-23T06:26:34.256Z,4.12
2019-05-23T06:27:39.859Z,4.55
2019-05-23T06:28:43.127Z,3.87
2019-05-23T06:29:45.584Z,3.98
2019-05-23T06:30:49.132Z,4.12
2019-05-23T06:31:51.927Z,4.60
2019-05-23T06:32:54.633Z,4.25
2019-05-23T06:33:57.671Z,6.03
2019-05-23T06:35:00.302Z,6.05
2019-05-23T06:36:03.355Z,5.08
2019-05-23T06:37:07.870Z,5.08
2019-05-23T06:38:10.973Z,5.55
2019-05-23T06:39:15.275Z,4.97
2019-05-23T06:40:18.339Z,5.67
2019-05-23T06:41:22.975Z,4.62
2019-05-23T06:42:25.364Z,4.40
2019-05-23T06:43:28.702Z,5.53
2019-05-23T06:44:31.936Z,4.72
2019-05-23T06:45:34.353Z,5.03
2019-05-23T06:46:49.429Z,4.33
2019-05-23T06:47:57.677Z,4.58
2019-05-23T06:49:00.222Z,4.40
2019-05-23T06:50:06.819Z,4.65
2019-05-23T06:51:09.267Z,4.65
2019-05-23T06:52:13.199Z,4.97
2019-05-23T06:53:15.843Z,4.45
2019-05-23T06:54:18.455Z,4.12
2019-05-23T06:55:20.975Z,4.58
2019-05-23T06:56:24.229Z,5.33
2019-05-23T06:57:26.855Z,4.75
2019-05-23T06:58:29.612Z,5.00
2019-05-23T06:59:32.739Z,4.03
2019-05-23T07:00:35.299Z,4.65
2019-05-23T07:01:38.164Z,4.22
2019-05-23T07:02:41.330Z,4.40
2019-05-23T07:03:44.237Z,4.33
2019-05-23T07:04:47.244Z,4.37
2019-05-23T07:05:50.092Z,3.95
2019-05-23T07:06:52.669Z,4.67
2019-05-23T07:07:55.943Z,4.65
2019-05-23T07:08:58.894Z,4.95
2019-05-23T07:10:03.732Z,4.03
2019-05-23T07:11:06.273Z,4.55
2019-05-23T07:12:09.502Z,5.17
2019-05-23T07:13:12.087Z,3.98
2019-05-23T07:14:15.003Z,4.42
2019-05-23T07:15:17.885Z,4.37
2019-05-23T07:16:20.444Z,3.90
2019-05-23T07:17:25.263Z,4.22
2019-05-23T07:18:28.004Z,3.65
2019-05-23T07:19:30.562Z,4.25
2019-05-23T07:20:33.504Z,4.75
2019-05-23T07:21:35.929Z,4.72
2019-05-23T07:22:39.283Z,4.50
2019-05-23T07:23:41.823Z,3.50
2019-05-23T07:24:57.526Z,3.58
2019-05-23T07:25:48.608Z,3.83
2019-05-23T07:26:51.270Z,3.80
2019-05-23T07:27:56.175Z,4.65
2019-05-23T07:28:58.797Z,4.67
2019-05-23T07:30:03.530Z,4.08
2019-05-23T07:31:06.486Z,3.90
2019-05-23T07:32:09.132Z,4.08
2019-05-23T07:33:12.871Z,3.70
2019-05-23T07:34:15.790Z,3.85
2019-05-23T07:35:19.232Z,3.42
2019-05-23T07:36:21.794Z,4.33
2019-05-23T07:37:24.431Z,4.25
2019-05-23T07:38:27.243Z,4.50
2019-05-23T07:39:29.710Z,4.83
2019-05-23T07:40:32.455Z,3.92
2019-05-23T07:41:34.901Z,4.17
2019-05-23T07:42:37.328Z,5.12
2019-05-23T07:43:39.941Z,4.80
2019-05-23T07:44:48.325Z,4.22
2019-05-23T07:45:52.289Z,4.58
2019-05-23T07:46:54.720Z,5.05
2019-05-23T07:47:57.645Z,4.37
2019-05-23T07:49:00.143Z,4.33
2019-05-23T07:50:02.653Z,3.55
2019-05-23T07:51:05.358Z,4.62
2019-05-23T07:52:07.843Z,5.25
2019-05-23T07:53:13.197Z,4.85
2019-05-23T07:54:29.907Z,4.12
2019-05-23T07:55:36.712Z,4.42
2019-05-23T07:56:39.657Z,4.85
2019-05-23T07:57:42.493Z,4.45
2019-05-23T07:58:45.213Z,3.75
2019-05-23T07:59:48.069Z,4.60
2019-05-23T08:00:54.828Z,4.83
2019-05-23T08:02:12.065Z,4.62
2019-05-23T08:03:15.906Z,5.08
2019-05-23T08:04:21.792Z,4.20
2019-05-23T08:05:24.126Z,4.05
2019-05-23T08:06:27.169Z,4.90
2019-05-23T08:07:32.800Z,5.15
2019-05-23T08:08:35.279Z,4.10
2019-05-23T08:09:37.701Z,4.72
2019-05-23T08:10:40.116Z,4.95
2019-05-23T08:11:42.762Z,4.53
2019-05-23T08:12:45.630Z,4.87
2019-05-23T08:13:49.240Z,4.65
2019-05-23T08:14:51.747Z,5.60
2019-05-23T08:15:54.686Z,4.45
2019-05-23T08:16:57.564Z,4.50
2019-05-23T08:18:00.011Z,5.75
2019-05-23T08:19:02.668Z,5.20
2019-05-23T08:20:05.695Z,5.37
2019-05-23T08:21:08.625Z,4.85
2019-05-23T08:22:11.515Z,5.25
2019-05-23T08:23:14.540Z,4.53
2019-05-23T08:24:17.384Z,5.25
2019-05-23T08:25:19.802Z,5.58
2019-05-23T08:26:23.045Z,4.97
2019-05-23T08:27:25.700Z,6.87
2019-05-23T08:28:28.620Z,5.10
2019-05-23T08:29:33.123Z,6.35
2019-05-23T08:30:35.954Z,7.12
2019-05-23T08:31:38.843Z,6.75
2019-05-23T08:32:42.350Z,7.12
2019-05-23T08:33:46.102Z,6.78
2019-05-23T08:34:49.467Z,6.45
2019-05-23T08:35:54.526Z,7.37
2019-05-23T08:36:57.546Z,6.10
2019-05-23T08:38:00.342Z,6.40
2019-05-23T08:39:05.641Z,5.90
2019-05-23T08:40:09.161Z,7.67
2019-05-23T08:41:14.112Z,6.17
2019-05-23T08:42:18.240Z,7.08
2019-05-23T08:43:21.078Z,6.65
2019-05-23T08:44:23.970Z,7.28
2019-05-23T08:45:26.615Z,7.20
2019-05-23T08:46:29.467Z,6.10
2019-05-23T08:47:32.097Z,7.47
2019-05-23T08:48:34.548Z,7.62
2019-05-23T08:49:37.328Z,7.15
2019-05-23T08:50:40.418Z,6.72
2019-05-23T08:51:43.275Z,6.20
2019-05-23T08:52:45.751Z,5.58
2019-05-23T08:53:48.258Z,8.23
2019-05-23T08:54:55.226Z,7.58
2019-05-23T08:55:57.942Z,7.12
2019-05-23T08:57:00.512Z,8.35
2019-05-23T08:58:04.001Z,7.67
2019-05-23T08:59:07.088Z,6.47
2019-05-23T09:00:10.037Z,6.05
2019-05-23T09:01:12.778Z,6.60
2019-05-23T09:02:16.310Z,7.12
2019-05-23T09:03:19.530Z,6.95
2019-05-23T09:04:22.740Z,7.03
2019-05-23T09:05:27.502Z,6.75
2019-05-23T09:06:30.189Z,6.97
2019-05-23T09:07:32.709Z,6.50
2019-05-23T09:08:35.966Z,5.87
2019-05-23T09:09:38.716Z,7.60
2019-05-23T09:10:41.376Z,8.30
2019-05-23T09:11:44.581Z,8.63
2019-05-23T09:12:47.894Z,7.08
2019-05-23T09:13:50.401Z,7.50
2019-05-23T09:14:53.299Z,6.28
2019-05-23T09:15:56.131Z,6.67
2019-05-23T09:17:00.356Z,6.08
2019-05-23T09:18:04.963Z,7.55
2019-05-23T09:19:08.191Z,7.20
2019-05-23T09:20:12.327Z,6.00
2019-05-23T09:21:14.743Z,7.22
2019-05-23T09:22:17.378Z,8.03
2019-05-23T09:23:20.331Z,6.42
2019-05-23T09:24:22.840Z,5.65
2019-05-23T09:25:25.269Z,6.20
2019-05-23T09:26:27.850Z,6.50
2019-05-23T09:27:30.290Z,7.00
2019-05-23T09:28:34.529Z,6.28
2019-05-23T09:29:37.197Z,7.03
2019-05-23T09:30:39.650Z,6.22
2019-05-23T09:31:42.260Z,8.43
2019-05-23T09:32:44.803Z,6.83
2019-05-23T09:33:47.316Z,6.78
2019-05-23T09:34:50.021Z,7.22
2019-05-23T09:35:52.453Z,6.25
2019-05-23T09:36:54.895Z,6.87
2019-05-23T09:37:57.738Z,6.00
2019-05-23T09:39:00.214Z,6.33
2019-05-23T09:40:05.082Z,5.37
2019-05-23T09:41:07.945Z,6.00
2019-05-23T09:42:12.141Z,6.28
2019-05-23T09:43:16.273Z,5.20
2019-05-23T09:44:19.254Z,5.00
2019-05-23T09:45:22.299Z,5.45
2019-05-23T09:46:25.191Z,5.80
2019-05-23T09:47:27.903Z,5.45
2019-05-23T09:48:30.847Z,7.22
2019-05-23T09:49:33.327Z,6.20
2019-05-23T09:50:35.893Z,6.05
2019-05-23T09:51:38.634Z,5.00
2019-05-23T09:52:41.699Z,6.15
2019-05-23T09:53:47.342Z,5.42
2019-05-23T09:54:48.610Z,7.03
2019-05-23T09:55:51.440Z,7.00
2019-05-23T09:56:54.186Z,7.20
2019-05-23T09:57:56.602Z,6.12
2019-05-23T09:58:59.336Z,6.00
2019-05-23T10:00:01.938Z,7.87
2019-05-23T10:01:05.281Z,6.17
2019-05-23T10:02:08.306Z,6.40
2019-05-23T10:03:11.135Z,4.80
2019-05-23T10:04:13.617Z,5.75
2019-05-23T10:05:16.458Z,4.62
2019-05-23T10:06:19.345Z,4.53
2019-05-23T10:07:22.073Z,3.27
2019-05-23T10:08:24.703Z,5.33
2019-05-23T10:09:27.467Z,4.17
2019-05-23T10:10:31.127Z,5.90
2019-05-23T10:11:33.917Z,4.80
2019-05-23T10:12:36.662Z,6.00
2019-05-23T10:13:39.729Z,5.62
2019-05-23T10:14:42.451Z,6.08
2019-05-23T10:15:50.630Z,4.33
2019-05-23T10:16:53.242Z,3.60
2019-05-23T10:17:55.651Z,3.33
2019-05-23T10:18:58.370Z,3.50
2019-05-23T10:20:00.866Z,3.87
2019-05-23T10:21:04.721Z,3.12
2019-05-23T10:22:07.198Z,4.15
2019-05-23T10:23:09.675Z,4.25
2019-05-23T10:24:12.605Z,3.37
2019-05-23T10:25:17.479Z,3.62
2019-05-23T10:26:20.425Z,2.80
2019-05-23T10:27:23.486Z,3.20
2019-05-23T10:28:25.986Z,3.15
2019-05-23T10:29:28.403Z,2.52
2019-05-23T10:30:32.629Z,4.30
2019-05-23T10:31:35.077Z,4.00
2019-05-23T10:32:37.549Z,4.58
2019-05-23T10:33:40.127Z,3.42
2019-05-23T10:34:42.904Z,3.92
2019-05-23T10:35:59.766Z,2.90
2019-05-23T10:36:50.085Z,5.20
2019-05-23T10:37:52.705Z,4.37
2019-05-23T10:38:55.436Z,3.37
2019-05-23T10:39:57.861Z,3.20
2019-05-23T10:41:00.405Z,2.72
2019-05-23T10:42:02.911Z,3.25
2019-05-23T10:43:05.515Z,2.72
2019-05-23T10:44:08.531Z,3.75
2019-05-23T10:45:12.255Z,4.40
2019-05-23T10:46:14.827Z,4.70
2019-05-23T10:47:18.456Z,2.85
2019-05-23T10:48:21.810Z,3.98
2019-05-23T10:49:24.455Z,4.20
2019-05-23T10:50:41.971Z,3.87
2019-05-23T10:51:32.338Z,3.90
2019-05-23T10:52:35.221Z,4.08
2019-05-23T10:53:37.659Z,3.65
2019-05-23T10:54:40.205Z,3.40
2019-05-23T10:55:43.001Z,3.98
2019-05-23T10:56:45.376Z,4.28
2019-05-23T10:57:47.803Z,3.70
2019-05-23T10:58:50.211Z,4.30
2019-05-23T10:59:52.661Z,2.75
2019-05-23T11:00:56.595Z,3.40
2019-05-23T11:01:59.063Z,3.20
2019-05-23T11:03:01.470Z,2.27
2019-05-23T11:04:04.222Z,2.50
2019-05-23T11:05:13.218Z,2.70
2019-05-23T11:06:16.471Z,2.58
2019-05-23T11:07:17.317Z,3.08
2019-05-23T11:08:20.282Z,2.60
2019-05-23T11:09:36.679Z,2.65
2019-05-23T11:10:27.666Z,2.52
2019-05-23T11:11:30.478Z,2.52
2019-05-23T11:12:32.938Z,2.95
2019-05-23T11:13:35.386Z,2.35
2019-05-23T11:14:38.120Z,2.40
2019-05-23T11:15:41.753Z,2.75
2019-05-23T11:16:44.198Z,3.45
2019-05-23T11:17:46.591Z,3.55
2019-05-23T11:18:49.459Z,2.42
2019-05-23T11:19:51.838Z,3.10
2019-05-23T11:20:54.247Z,2.42
2019-05-23T11:21:56.875Z,2.22
2019-05-23T11:22:59.352Z,2.10
2019-05-23T11:24:04.157Z,2.37
2019-05-23T11:25:09.208Z,1.55
2019-05-23T11:26:12.303Z,1.32
2019-05-23T11:27:15.141Z,1.85
2019-05-23T11:28:18.032Z,1.92
2019-05-23T11:29:20.496Z,1.72
2019-05-23T11:30:35.887Z,1.32
2019-05-23T11:31:38.363Z,1.57
2019-05-23T11:32:42.764Z,1.92
2019-05-23T11:33:45.222Z,1.82
2019-05-23T11:34:47.622Z,1.85
2019-05-23T11:35:50.490Z,1.92
2019-05-23T11:36:52.907Z,1.95
2019-05-23T11:37:55.289Z,2.35
2019-05-23T11:38:58.028Z,1.40
2019-05-23T11:40:00.446Z,1.67
2019-05-23T11:41:03.439Z,1.65
2019-05-23T11:42:06.083Z,1.22
2019-05-23T11:43:08.701Z,1.55
2019-05-23T11:44:11.302Z,1.65
2019-05-23T11:45:14.338Z,1.62
2019-05-23T11:46:24.933Z,1.70
2019-05-23T11:47:31.371Z,1.62
2019-05-23T11:48:34.018Z,1.70
2019-05-23T11:49:36.865Z,1.30
2019-05-23T11:50:39.425Z,1.12
2019-05-23T11:51:42.446Z,1.70
2019-05-23T11:52:45.490Z,1.57
2019-05-23T11:54:06.017Z,1.62
2019-05-23T11:54:53.517Z,1.30
2019-05-23T11:55:56.267Z,1.67
2019-05-23T11:56:59.537Z,2.30
2019-05-23T11:58:02.418Z,1.72
2019-05-23T11:59:05.520Z,1.65
2019-05-23T12:00:10.598Z,1.85
2019-05-23T12:01:48.361Z,2.08
2019-05-23T12:02:50.790Z,1.45
2019-05-23T12:03:57.328Z,1.47
2019-05-23T12:05:01.351Z,2.60
2019-05-23T12:06:05.738Z,1.32
2019-05-23T12:07:13.477Z,1.45
2019-05-23T12:08:15.896Z,2.30
2019-05-23T12:09:18.848Z,2.60
2019-05-23T12:10:21.353Z,2.10
2019-05-23T12:11:24.497Z,2.20
2019-05-23T12:12:27.132Z,2.40
2019-05-23T12:13:30.251Z,2.05
2019-05-23T12:14:33.270Z,2.33
2019-05-23T12:15:37.822Z,1.82
2019-05-23T12:16:40.371Z,1.98
2019-05-23T12:17:43.005Z,1.82
2019-05-23T12:18:45.648Z,1.90
2019-05-23T12:19:48.386Z,2.00
2019-05-23T12:20:50.803Z,1.30
2019-05-23T12:21:53.811Z,1.98
2019-05-23T12:22:56.275Z,1.62
2019-05-23T12:23:58.752Z,2.33
2019-05-23T12:25:20.119Z,1.87
2019-05-23T12:26:05.482Z,1.50
2019-05-23T12:27:08.432Z,1.62
2019-05-23T12:28:12.660Z,2.35
2019-05-23T12:29:15.297Z,3.00
2019-05-23T12:30:19.435Z,2.17
2019-05-23T12:31:22.926Z,2.20
2019-05-23T12:32:25.453Z,1.90
2019-05-23T12:33:27.923Z,1.70
2019-05-23T12:34:30.665Z,1.52
2019-05-23T12:35:33.256Z,1.98
2019-05-23T12:36:36.286Z,2.58
2019-05-23T12:37:38.778Z,2.42
2019-05-23T12:38:41.390Z,1.77
2019-05-23T12:39:44.454Z,1.82
2019-05-23T12:40:46.873Z,2.10
2019-05-23T12:41:49.618Z,2.45
2019-05-23T12:42:52.333Z,2.52
2019-05-23T12:43:54.830Z,2.42
2019-05-23T12:44:57.422Z,2.50
2019-05-23T12:45:59.885Z,2.15
2019-05-23T12:47:04.190Z,1.62
2019-05-23T12:48:13.140Z,2.10
2019-05-23T12:49:24.364Z,2.52
2019-05-23T12:50:29.747Z,2.00
2019-05-23T12:51:34.127Z,2.60
2019-05-23T12:52:38.371Z,1.55
2019-05-23T12:53:40.893Z,2.00
2019-05-23T12:54:43.400Z,2.65
2019-05-23T12:55:45.896Z,1.65
2019-05-23T12:56:49.147Z,2.20
2019-05-23T12:57:54.737Z,2.33
2019-05-23T12:58:57.958Z,2.12
2019-05-23T13:00:00.478Z,1.65
2019-05-23T13:01:04.187Z,1.77
2019-05-23T13:02:11.045Z,1.27
2019-05-23T13:03:14.953Z,2.42
2019-05-23T13:04:17.832Z,1.70
2019-05-23T13:05:48.909Z,2.35
2019-05-23T13:07:06.375Z,2.05
2019-05-23T13:08:13.130Z,2.30
2019-05-23T13:09:15.733Z,2.40
2019-05-23T13:10:23.756Z,2.70
2019-05-23T13:11:24.080Z,2.15
2019-05-23T13:12:26.929Z,1.90
2019-05-23T13:13:31.214Z,2.08
2019-05-23T13:14:33.642Z,1.72
2019-05-23T13:15:36.364Z,2.42
2019-05-23T13:16:39.082Z,2.27
2019-05-23T13:17:42.419Z,2.08
2019-05-23T13:18:44.970Z,2.12
2019-05-23T13:19:47.808Z,1.98
2019-05-23T13:20:50.538Z,2.30
2019-05-23T13:21:53.055Z,1.55
2019-05-23T13:22:55.841Z,2.40
2019-05-23T13:23:58.656Z,2.08
2019-05-23T13:25:01.307Z,2.77
2019-05-23T13:26:05.986Z,1.90
2019-05-23T13:27:09.827Z,2.05
2019-05-23T13:28:12.406Z,2.52
2019-05-23T13:29:15.143Z,2.05
2019-05-23T13:30:19.295Z,3.70
2019-05-23T13:31:21.693Z,3.12
2019-05-23T13:32:25.228Z,3.85
2019-05-23T13:33:27.750Z,2.60
2019-05-23T13:34:30.551Z,2.83
2019-05-23T13:35:33.644Z,3.40
2019-05-23T13:36:36.153Z,2.55
2019-05-23T13:37:52.929Z,2.85
2019-05-23T13:38:44.037Z,3.27
2019-05-23T13:39:46.733Z,2.85
2019-05-23T13:40:49.356Z,2.92
2019-05-23T13:41:52.097Z,2.30
2019-05-23T13:43:06.654Z,2.47
2019-05-23T13:44:33.939Z,3.62
2019-05-23T13:45:26.951Z,2.00
2019-05-23T13:46:29.664Z,2.52
2019-05-23T13:47:32.085Z,3.15
2019-05-23T13:48:34.744Z,3.60
2019-05-23T13:49:37.191Z,2.35
2019-05-23T13:50:39.929Z,2.15
2019-05-23T13:51:42.462Z,1.37
2019-05-23T13:52:47.897Z,3.58
2019-05-23T13:53:50.295Z,4.40
2019-05-23T13:54:52.735Z,2.90
2019-05-23T13:55:57.011Z,2.62
2019-05-23T13:56:59.419Z,3.12
2019-05-23T13:58:01.856Z,2.75
2019-05-23T13:59:04.289Z,1.77
2019-05-23T14:00:07.793Z,2.77
2019-05-23T14:01:10.690Z,2.27
2019-05-23T14:02:13.410Z,2.72
2019-05-23T14:03:16.037Z,3.25
2019-05-23T14:04:19.159Z,3.20
2019-05-23T14:05:22.476Z,1.77
2019-05-23T14:06:25.039Z,2.12
2019-05-23T14:07:28.401Z,1.85
2019-05-23T14:08:31.429Z,2.80
2019-05-23T14:09:35.561Z,3.45
2019-05-23T14:10:39.020Z,2.90
2019-05-23T14:11:42.073Z,2.77
2019-05-23T14:12:44.981Z,2.65
2019-05-23T14:13:47.860Z,2.20
2019-05-23T14:14:50.727Z,1.82
2019-05-23T14:15:53.378Z,2.02